createdAt,value
2022-10-09T00:00:06.151Z,11.78
2022-10-09T00:10:14.484Z,11.53
2022-10-09T00:20:19.162Z,11.44
2022-10-09T00:30:22.306Z,11.00
2022-10-09T00:40:27.524Z,10.70
2022-10-09T00:50:39.735Z,10.68
2022-10-09T01:00:43.785Z,10.44
2022-10-09T01:10:55.616Z,10.34
2022-10-09T01:21:09.247Z,10.07
2022-10-09T01:31:14.905Z,9.74
2022-10-09T01:41:18.575Z,10.03
2022-10-09T01:51:28.348Z,9.63
2022-10-09T02:01:34.289Z,9.36
2022-10-09T02:11:40.635Z,9.59
2022-10-09T02:21:46.838Z,9.35
2022-10-09T02:31:52.281Z,9.10
2022-10-09T02:41:55.254Z,9.34
2022-10-09T02:51:59.900Z,9.16
2022-10-09T03:02:03.520Z,8.90
2022-10-09T03:12:07.982Z,8.98
2022-10-09T03:22:10.874Z,8.87
2022-10-09T03:32:15.266Z,8.64
2022-10-09T03:42:18.276Z,8.70
2022-10-09T03:52:22.763Z,8.40
2022-10-09T04:02:25.949Z,8.55
2022-10-09T04:12:30.007Z,8.71
2022-10-09T04:22:33.000Z,8.66
2022-10-09T04:32:37.159Z,8.53
2022-10-09T04:42:40.814Z,8.46
2022-10-09T04:52:45.140Z,8.48
2022-10-09T05:02:48.392Z,8.23
2022-10-09T05:12:52.925Z,8.07
2022-10-09T05:22:58.096Z,8.35
2022-10-09T05:33:02.414Z,8.33
2022-10-09T05:43:05.611Z,7.94
2022-10-09T05:53:09.956Z,7.94
2022-10-09T06:03:12.891Z,7.81
2022-10-09T06:13:19.126Z,7.86
2022-10-09T06:23:22.280Z,7.61
2022-10-09T06:33:26.708Z,8.36
2022-10-09T06:43:29.642Z,8.79
2022-10-09T06:53:35.216Z,8.66
2022-10-09T07:03:40.846Z,8.87
2022-10-09T07:13:45.800Z,8.96
2022-10-09T07:23:49.343Z,9.17
2022-10-09T07:33:55.545Z,9.63
2022-10-09T07:44:01.234Z,9.71
2022-10-09T07:54:05.950Z,10.20
2022-10-09T08:04:10.202Z,10.72
2022-10-09T08:14:19.190Z,11.34
2022-10-09T08:24:22.391Z,11.51
2022-10-09T08:34:27.372Z,11.67
2022-10-09T08:44:33.705Z,12.19
2022-10-09T08:54:40.596Z,12.58
2022-10-09T09:04:54.930Z,12.72
2022-10-09T09:15:17.101Z,13.10
2022-10-09T09:25:23.431Z,13.28
2022-10-09T09:35:34.099Z,13.54
2022-10-09T09:45:37.090Z,13.69
2022-10-09T09:55:43.343Z,13.92
2022-10-09T10:05:46.854Z,14.30
2022-10-09T10:15:54.213Z,14.48
2022-10-09T10:25:59.267Z,14.42
2022-10-09T10:36:03.699Z,14.55
2022-10-09T10:46:15.274Z,14.90
2022-10-09T10:56:27.473Z,15.21
2022-10-09T11:06:39.273Z,15.84
2022-10-09T11:16:57.210Z,15.88
2022-10-09T11:27:07.775Z,16.25
2022-10-09T11:37:20.544Z,16.48
2022-10-09T11:47:31.932Z,16.77
2022-10-09T11:57:36.196Z,16.75
2022-10-09T12:07:40.626Z,16.96
2022-10-09T12:17:49.935Z,17.40
2022-10-09T12:27:55.467Z,17.17
2022-10-09T12:37:59.790Z,17.26
2022-10-09T12:48:12.528Z,17.46
2022-10-09T12:58:20.355Z,17.41
2022-10-09T13:08:26.877Z,17.67
2022-10-09T13:18:31.292Z,17.39
2022-10-09T13:28:34.173Z,17.65
2022-10-09T13:38:38.506Z,17.62
2022-10-09T13:48:41.533Z,17.67
2022-10-09T13:58:45.855Z,17.79
2022-10-09T14:08:50.291Z,17.70
2022-10-09T14:18:57.763Z,17.59
2022-10-09T14:29:02.184Z,17.48
2022-10-09T14:39:06.461Z,17.44
2022-10-09T14:49:09.577Z,17.57
2022-10-09T14:59:14.188Z,17.45
2022-10-09T15:09:17.264Z,17.39
2022-10-09T15:19:21.585Z,17.40
2022-10-09T15:29:24.410Z,17.29
2022-10-09T15:39:29.037Z,17.20
2022-10-09T15:49:31.918Z,17.16
2022-10-09T15:59:40.179Z,17.10
2022-10-09T16:09:42.914Z,16.98
2022-10-09T16:19:47.264Z,16.82
2022-10-09T16:29:50.451Z,16.67
2022-10-09T16:39:57.646Z,16.56
2022-10-09T16:50:00.652Z,16.44
2022-10-09T17:00:06.017Z,16.33
2022-10-09T17:10:10.724Z,16.15
2022-10-09T17:20:15.434Z,16.22
2022-10-09T17:30:21.215Z,16.01
2022-10-09T17:40:25.846Z,15.76
2022-10-09T17:50:28.895Z,15.59
2022-10-09T18:00:33.482Z,15.41
2022-10-09T18:10:37.303Z,15.10
2022-10-09T18:20:41.678Z,15.14
2022-10-09T18:30:46.266Z,15.00
2022-10-09T18:40:50.678Z,15.05
2022-10-09T18:50:53.562Z,14.94
2022-10-09T19:00:57.564Z,14.82
2022-10-09T19:11:00.667Z,14.51
2022-10-09T19:21:05.743Z,14.33
2022-10-09T19:31:09.960Z,14.55
2022-10-09T19:41:16.555Z,14.23
2022-10-09T19:51:22.407Z,14.05
2022-10-09T20:01:28.016Z,13.84
2022-10-09T20:11:30.863Z,13.84
2022-10-09T20:21:35.521Z,13.67
2022-10-09T20:31:38.571Z,13.72
2022-10-09T20:41:43.654Z,13.89
2022-10-09T20:51:46.528Z,13.80
2022-10-09T21:01:50.646Z,13.84
2022-10-09T21:11:53.639Z,13.80
2022-10-09T21:21:57.943Z,13.62
2022-10-09T21:32:00.927Z,13.51
2022-10-09T21:42:05.730Z,13.24
2022-10-09T21:52:10.639Z,12.69
2022-10-09T22:02:14.827Z,12.39
2022-10-09T22:12:17.971Z,12.68
2022-10-09T22:22:23.622Z,12.37
2022-10-09T22:32:27.898Z,12.11
2022-10-09T22:42:32.246Z,12.03
2022-10-09T22:52:35.304Z,12.08
2022-10-09T23:02:39.724Z,12.04
2022-10-09T23:12:43.031Z,11.90
2022-10-09T23:22:47.794Z,11.79
2022-10-09T23:32:53.376Z,11.70
2022-10-09T23:42:57.979Z,11.50
2022-10-09T23:53:01.027Z,11.28
